Time;durP1;ratioP1;P1;durP2;ratioP2;P2;SDS_P1;SDS_P2;PMS_P1;PMS_P2;Temp;Humidity;BMP_temperature;BMP_pressure;BME280_temperature;BME280_humidity;BME280_pressure;Samples;Min_cycle;Max_cycle;Signal;HPM_P1;HPM_P2
2022/04/13 00:01:09;;;;;;;3.55;3.10;;;12.30;70.30;;;;;;5068123;28;20036;-79
2022/04/13 00:03:35;;;;;;;3.05;2.72;;;12.30;70.20;;;;;;5084861;28;20082;-78
2022/04/13 00:06:01;;;;;;;3.63;2.80;;;12.30;70.30;;;;;;5067740;28;20028;-78
2022/04/13 00:08:27;;;;;;;5.10;2.70;;;12.30;70.20;;;;;;5067967;28;20040;-79
2022/04/13 00:10:53;;;;;;;3.10;2.80;;;12.40;70.20;;;;;;5067278;28;20053;-78
2022/04/13 00:13:19;;;;;;;3.78;2.55;;;12.40;70.10;;;;;;5085072;28;20040;-79
2022/04/13 00:15:45;;;;;;;3.58;3.00;;;12.40;70.20;;;;;;5085673;28;20093;-79
2022/04/13 00:18:11;;;;;;;3.72;2.75;;;12.40;70.20;;;;;;5086069;28;20455;-79
2022/04/13 00:20:37;;;;;;;3.90;2.67;;;12.40;70.20;;;;;;5085650;28;20074;-79
2022/04/13 00:23:04;;;;;;;2.50;2.30;;;12.40;70.10;;;;;;5085583;28;20085;-78
2022/04/13 00:25:30;;;;;;;2.80;2.38;;;12.40;70.10;;;;;;5085673;28;20111;-79
2022/04/13 00:27:56;;;;;;;2.97;2.67;;;12.50;70.10;;;;;;5084871;28;20036;-78
2022/04/13 00:30:22;;;;;;;3.92;2.90;;;12.50;70.10;;;;;;5101028;28;20081;-78
2022/04/13 00:32:48;;;;;;;2.70;2.25;;;12.50;70.10;;;;;;5085346;28;20032;-78
2022/04/13 00:35:15;;;;;;;2.97;2.25;;;12.50;70.10;;;;;;5085490;28;20065;-79
2022/04/13 00:37:41;;;;;;;3.15;2.15;;;12.50;70.00;;;;;;5079782;28;20043;-79
2022/04/13 00:40:07;;;;;;;3.55;2.83;;;12.50;70.00;;;;;;5084660;28;20044;-78
2022/04/13 00:42:33;;;;;;;3.70;2.53;;;12.50;70.00;;;;;;5085072;28;20123;-78
2022/04/13 00:44:59;;;;;;;3.38;2.95;;;12.50;69.90;;;;;;5085823;28;20032;-78
2022/04/13 00:47:26;;;;;;;2.50;2.10;;;12.50;69.90;;;;;;5067269;28;20139;-78
2022/04/13 00:49:54;;;;;;;4.00;2.47;;;12.50;69.80;;;;;;5084811;28;20387;-79
2022/04/13 00:52:23;;;;;;;3.10;2.65;;;12.60;69.80;;;;;;5101936;28;20032;-78
2022/04/13 00:54:50;;;;;;;18.50;3.20;;;12.60;69.70;;;;;;5089611;28;20390;-78
2022/04/13 00:57:20;;;;;;;3.35;2.70;;;12.60;69.80;;;;;;5083231;28;20032;-77
2022/04/13 00:59:48;;;;;;;3.00;2.20;;;12.60;69.70;;;;;;5089395;28;20052;-77
2022/04/13 01:02:17;;;;;;;2.88;2.20;;;12.60;69.60;;;;;;5070519;28;20811;-77
2022/04/13 01:04:46;;;;;;;2.20;1.90;;;12.50;69.50;;;;;;5088733;28;20429;-78
2022/04/13 01:07:12;;;;;;;3.00;2.40;;;12.60;69.50;;;;;;5088050;28;20127;-78
2022/04/13 01:09:40;;;;;;;2.65;2.22;;;12.60;69.50;;;;;;5088498;28;20138;-79
2022/04/13 01:12:06;;;;;;;3.00;2.33;;;12.60;69.50;;;;;;5083089;28;20032;-78
2022/04/13 01:14:32;;;;;;;2.63;2.30;;;12.60;69.60;;;;;;5071673;28;20470;-78
2022/04/13 01:17:00;;;;;;;2.78;2.10;;;12.60;69.40;;;;;;5088907;28;20255;-79
2022/04/13 01:19:27;;;;;;;2.15;2.00;;;12.60;69.40;;;;;;5083662;28;20384;-79
2022/04/13 01:21:58;;;;;;;2.50;2.30;;;12.60;69.30;;;;;;5070288;28;20429;-78
2022/04/13 01:24:25;;;;;;;2.60;2.10;;;12.60;69.30;;;;;;5086518;28;20383;-77
2022/04/13 01:26:51;;;;;;;2.45;2.13;;;12.60;69.30;;;;;;5071785;28;20397;-78
2022/04/13 01:29:17;;;;;;;2.40;2.20;;;12.60;69.30;;;;;;5070324;28;20028;-78
2022/04/13 01:31:44;;;;;;;2.50;2.00;;;12.60;69.30;;;;;;5053277;28;20174;-79
2022/04/13 01:34:13;;;;;;;2.00;1.80;;;12.60;69.20;;;;;;5070751;28;20383;-78
2022/04/13 01:36:39;;;;;;;2.78;2.10;;;12.60;69.20;;;;;;5088152;28;20525;-79
2022/04/13 01:39:06;;;;;;;3.33;2.08;;;12.60;69.10;;;;;;5067295;28;20123;-78
2022/04/13 01:41:33;;;;;;;1.70;1.50;;;12.60;69.30;;;;;;5087727;28;20119;-78
2022/04/13 01:43:59;;;;;;;2.92;1.73;;;12.60;69.00;;;;;;5088328;28;20040;-79
2022/04/13 01:46:25;;;;;;;2.17;1.88;;;12.60;69.00;;;;;;5070198;28;20036;-79
2022/04/13 01:48:51;;;;;;;2.08;1.88;;;12.60;69.00;;;;;;5065661;28;20805;-78
2022/04/13 01:51:20;;;;;;;2.20;2.00;;;12.60;69.00;;;;;;5103718;28;20035;-79
2022/04/13 01:53:50;;;;;;;1.63;1.52;;;12.60;68.90;;;;;;5088411;28;20031;-78
2022/04/13 01:56:17;;;;;;;2.00;1.90;;;12.70;68.90;;;;;;5087770;28;20501;-78
2022/04/13 01:58:44;;;;;;;2.53;2.33;;;12.70;69.00;;;;;;5087694;28;20028;-79
2022/04/13 02:01:10;;;;;;;2.10;1.80;;;12.70;68.90;;;;;;5087717;28;20039;-78
2022/04/13 02:03:36;;;;;;;2.05;1.85;;;12.60;68.80;;;;;;5087337;28;20050;-78
2022/04/13 02:06:03;;;;;;;2.20;2.00;;;12.60;68.80;;;;;;5070476;28;20039;-78
2022/04/13 02:08:30;;;;;;;3.03;2.25;;;12.60;68.80;;;;;;5087998;28;20036;-79
2022/04/13 02:10:56;;;;;;;2.53;2.20;;;12.60;68.80;;;;;;5087459;28;20475;-78
2022/04/13 02:13:22;;;;;;;2.25;2.03;;;12.60;68.80;;;;;;5088188;28;20060;-78
2022/04/13 02:15:48;;;;;;;2.58;1.85;;;12.60;68.80;;;;;;5054146;28;20126;-79
2022/04/13 02:18:15;;;;;;;2.22;2.03;;;12.60;68.80;;;;;;5087349;28;20456;-80
2022/04/13 02:20:41;;;;;;;2.10;1.92;;;12.70;68.80;;;;;;5088734;28;20027;-79
2022/04/13 02:23:08;;;;;;;5.63;2.08;;;12.70;68.70;;;;;;5104082;28;20138;-80
2022/04/13 02:25:35;;;;;;;2.50;2.25;;;12.60;68.70;;;;;;5087287;28;20055;-79
2022/04/13 02:28:05;;;;;;;2.53;2.30;;;12.70;68.70;;;;;;5087933;28;20127;-80
2022/04/13 02:30:32;;;;;;;2.30;2.00;;;12.60;68.60;;;;;;5086910;28;20077;-78
2022/04/13 02:32:59;;;;;;;2.00;1.80;;;12.60;68.60;;;;;;5086774;28;20035;-79
2022/04/13 02:35:25;;;;;;;2.40;2.10;;;12.60;68.50;;;;;;5065862;28;20138;-79
2022/04/13 02:37:51;;;;;;;1.70;1.60;;;12.70;68.50;;;;;;5069151;28;20464;-77
2022/04/13 02:40:17;;;;;;;2.38;1.88;;;12.70;68.40;;;;;;5086646;28;20040;-79
2022/04/13 02:42:43;;;;;;;1.77;1.67;;;12.70;68.50;;;;;;5052884;28;20077;-78
2022/04/13 02:45:10;;;;;;;2.58;2.20;;;12.60;68.30;;;;;;5069445;28;20086;-79
2022/04/13 02:47:36;;;;;;;2.80;1.75;;;12.60;68.30;;;;;;5087684;28;20037;-78
2022/04/13 02:50:06;;;;;;;1.98;1.77;;;12.70;68.40;;;;;;5087371;28;20029;-79
2022/04/13 02:52:33;;;;;;;2.70;2.00;;;12.70;68.30;;;;;;5085062;28;20510;-78
2022/04/13 02:54:59;;;;;;;2.25;2.00;;;12.70;68.30;;;;;;5086835;28;20036;-78
2022/04/13 02:57:25;;;;;;;2.10;1.92;;;12.70;68.30;;;;;;5087516;28;20035;-78
2022/04/13 02:59:51;;;;;;;1.80;1.70;;;12.60;68.20;;;;;;5087135;28;20020;-77
2022/04/13 03:02:19;;;;;;;2.17;2.05;;;12.60;68.10;;;;;;5068718;28;20028;-79
2022/04/13 03:04:46;;;;;;;2.17;1.98;;;12.70;68.20;;;;;;5086296;28;20032;-79
2022/04/13 03:07:14;;;;;;;2.63;2.35;;;12.70;68.10;;;;;;5086097;28;20062;-78
2022/04/13 03:09:41;;;;;;;2.25;1.90;;;12.70;68.00;;;;;;5068201;28;20060;-78
2022/04/13 03:12:08;;;;;;;2.15;2.00;;;12.70;68.00;;;;;;5087785;28;20063;-79
2022/04/13 03:14:35;;;;;;;2.83;1.70;;;12.60;67.90;;;;;;5086601;28;20020;-79
2022/04/13 03:17:01;;;;;;;2.10;1.80;;;12.60;67.80;;;;;;5086107;28;20051;-78
2022/04/13 03:19:27;;;;;;;4.53;2.08;;;12.70;67.90;;;;;;5068320;28;20717;-78
2022/04/13 03:21:54;;;;;;;2.35;2.15;;;12.60;67.80;;;;;;5068003;28;20037;-78
2022/04/13 03:24:24;;;;;;;1.73;1.63;;;12.60;67.80;;;;;;5086746;28;20042;-78
2022/04/13 03:26:51;;;;;;;2.05;1.65;;;12.60;67.80;;;;;;5086800;28;20028;-79
2022/04/13 03:29:18;;;;;;;1.95;1.77;;;12.60;67.80;;;;;;5063746;28;20466;-78
2022/04/13 03:31:44;;;;;;;1.92;1.83;;;12.60;67.70;;;;;;5085585;28;20123;-79
2022/04/13 03:34:10;;;;;;;2.53;2.03;;;12.70;67.70;;;;;;5068289;28;20509;-80
2022/04/13 03:36:39;;;;;;;1.77;1.67;;;12.70;67.70;;;;;;5067970;28;20066;-79
2022/04/13 03:39:06;;;;;;;2.28;1.90;;;12.60;67.70;;;;;;5067426;28;20433;-79
2022/04/13 03:41:37;;;;;;;3.05;2.13;;;12.60;67.70;;;;;;5067531;28;20152;-78
2022/04/13 03:44:04;;;;;;;2.55;1.88;;;12.60;67.70;;;;;;5086146;28;20032;-80
2022/04/13 03:46:30;;;;;;;1.73;1.63;;;12.70;67.70;;;;;;5086058;28;20043;-79
2022/04/13 03:48:56;;;;;;;1.60;1.50;;;12.70;67.70;;;;;;5085674;28;20040;-79
2022/04/13 03:51:22;;;;;;;2.67;1.70;;;12.70;67.60;;;;;;5086259;28;20042;-79
2022/04/13 03:53:48;;;;;;;1.85;1.58;;;12.70;67.50;;;;;;5086810;28;20024;-81
2022/04/13 03:56:14;;;;;;;2.08;1.80;;;12.70;67.40;;;;;;5086676;28;20536;-81
2022/04/13 03:58:40;;;;;;;3.92;1.60;;;12.70;67.30;;;;;;5084553;28;20070;-80
2022/04/13 04:01:07;;;;;;;1.75;1.33;;;12.70;67.30;;;;;;5085470;28;20028;-81
2022/04/13 04:03:37;;;;;;;2.08;1.85;;;12.70;67.30;;;;;;5085318;28;20123;-79
2022/04/13 04:06:04;;;;;;;1.90;1.77;;;12.70;67.30;;;;;;5068789;28;20028;-80
2022/04/13 04:08:32;;;;;;;2.03;1.80;;;12.70;67.20;;;;;;5067551;28;20078;-80
2022/04/13 04:10:58;;;;;;;1.92;1.63;;;12.70;67.10;;;;;;5085550;28;20070;-81
2022/04/13 04:13:24;;;;;;;1.95;1.85;;;12.70;67.20;;;;;;5050705;28;20035;-80
2022/04/13 04:15:50;;;;;;;2.17;1.85;;;12.70;67.10;;;;;;5085627;28;20368;-80
2022/04/13 04:18:16;;;;;;;2.80;1.88;;;12.70;67.00;;;;;;5085632;28;20040;-80
2022/04/13 04:20:42;;;;;;;4.18;2.25;;;12.70;67.00;;;;;;5068520;28;20028;-80
2022/04/13 04:23:08;;;;;;;3.10;1.75;;;12.70;67.00;;;;;;5085613;28;20509;-80
2022/04/13 04:25:37;;;;;;;2.03;1.90;;;12.80;67.00;;;;;;5085558;28;20032;-85
2022/04/13 04:28:06;;;;;;;2.10;2.00;;;12.70;66.90;;;;;;5084624;28;20035;-81
2022/04/13 04:30:32;;;;;;;3.05;2.05;;;12.80;66.90;;;;;;5083682;28;20852;-81
2022/04/13 04:32:58;;;;;;;2.10;1.85;;;12.80;66.90;;;;;;5086653;28;20578;-80
2022/04/13 04:35:24;;;;;;;2.08;1.88;;;12.70;66.80;;;;;;5085243;28;20036;-84
2022/04/13 04:37:50;;;;;;;2.70;2.13;;;12.80;66.80;;;;;;5085200;28;20475;-81
2022/04/13 04:40:16;;;;;;;2.42;2.05;;;12.80;66.80;;;;;;5085266;28;20038;-82
2022/04/13 04:42:49;;;;;;;2.03;1.83;;;12.70;66.70;;;;;;5087701;28;20039;-83
2022/04/13 04:45:19;;;;;;;2.20;1.90;;;12.80;66.70;;;;;;5066915;28;20040;-83
2022/04/13 04:47:46;;;;;;;2.33;2.03;;;12.80;66.60;;;;;;5085607;28;20032;-79
2022/04/13 04:50:12;;;;;;;2.75;2.00;;;12.80;66.60;;;;;;5051171;28;20062;-80
2022/04/13 04:52:42;;;;;;;3.40;1.77;;;12.80;66.70;;;;;;5068188;28;20040;-85
2022/04/13 04:55:13;;;;;;;2.17;1.98;;;12.80;66.80;;;;;;5067292;28;20043;-81
2022/04/13 04:57:40;;;;;;;3.80;2.20;;;12.80;67.00;;;;;;5084806;28;20032;-82
2022/04/13 05:00:12;;;;;;;2.58;2.00;;;12.80;66.90;;;;;;5066605;28;20028;-83
2022/04/13 05:02:38;;;;;;;5.80;2.53;;;12.90;66.90;;;;;;5040694;28;20044;-83
2022/04/13 05:05:05;;;;;;;2.60;2.22;;;12.80;66.90;;;;;;5084517;28;20364;-84
2022/04/13 05:07:31;;;;;;;5.82;2.20;;;12.90;67.30;;;;;;5084300;28;20032;-82
2022/04/13 05:10:00;;;;;;;5.63;2.45;;;12.90;67.60;;;;;;5077353;28;20028;-82
2022/04/13 05:12:27;;;;;;;3.13;2.17;;;13.00;68.10;;;;;;5099923;28;20035;-82
2022/04/13 05:14:55;;;;;;;4.57;2.10;;;13.00;68.50;;;;;;5049946;28;20040;-81
2022/04/13 05:17:24;;;;;;;6.35;2.67;;;13.00;68.90;;;;;;5084369;28;20055;-81
2022/04/13 05:19:50;;;;;;;4.38;2.58;;;13.00;68.90;;;;;;5067204;28;20032;-81
2022/04/13 05:22:17;;;;;;;4.47;2.38;;;13.10;69.30;;;;;;5084548;28;20058;-79
2022/04/13 05:24:43;;;;;;;3.45;2.28;;;13.10;69.40;;;;;;5086272;28;20032;-82
2022/04/13 05:27:09;;;;;;;4.32;2.80;;;13.10;69.50;;;;;;5085215;28;20036;-78
2022/04/13 05:29:35;;;;;;;3.45;2.67;;;13.10;68.60;;;;;;5066453;28;20035;-80
2022/04/13 05:32:02;;;;;;;4.93;2.92;;;12.90;67.30;;;;;;5047013;28;20036;-79
2022/04/13 05:34:28;;;;;;;3.60;2.50;;;12.80;66.70;;;;;;5084817;28;20601;-79
2022/04/13 05:36:55;;;;;;;4.18;2.50;;;12.70;66.40;;;;;;5084284;28;20040;-79
2022/04/13 05:39:21;;;;;;;3.15;2.60;;;12.60;66.40;;;;;;5085813;28;20358;-77
2022/04/13 05:41:47;;;;;;;4.50;2.67;;;12.60;66.50;;;;;;5088397;28;20040;-78
2022/04/13 05:44:13;;;;;;;5.18;3.00;;;12.40;66.60;;;;;;5086180;28;20445;-78
2022/04/13 05:46:39;;;;;;;5.65;2.67;;;12.40;66.90;;;;;;5087779;28;20531;-78
2022/04/13 05:49:05;;;;;;;5.22;2.95;;;12.40;70.00;;;;;;5087098;28;20040;-77
2022/04/13 05:51:31;;;;;;;5.43;3.15;;;12.50;71.10;;;;;;5069683;28;20042;-77
2022/04/13 05:53:57;;;;;;;3.83;3.08;;;12.50;69.00;;;;;;5048108;28;20036;-77
2022/04/13 05:56:23;;;;;;;4.25;3.15;;;12.40;68.10;;;;;;5087427;28;20043;-77
2022/04/13 05:58:49;;;;;;;5.07;3.72;;;12.30;67.20;;;;;;5087518;28;20123;-77
2022/04/13 06:01:15;;;;;;;5.00;3.53;;;12.20;67.20;;;;;;5087119;28;20524;-77
2022/04/13 06:03:40;;;;;;;5.10;3.33;;;12.20;67.90;;;;;;5087500;28;20032;-77
2022/04/13 06:06:06;;;;;;;4.20;2.88;;;12.20;67.70;;;;;;5087948;28;20032;-77
2022/04/13 06:08:32;;;;;;;5.72;3.75;;;12.10;67.10;;;;;;5068575;28;21011;-79
2022/04/13 06:10:59;;;;;;;6.18;4.00;;;12.10;67.10;;;;;;5087110;28;20061;-78
2022/04/13 06:13:25;;;;;;;5.45;3.92;;;11.90;66.90;;;;;;5086764;28;20036;-79
2022/04/13 06:15:51;;;;;;;4.65;3.40;;;11.80;66.80;;;;;;5088164;28;20055;-78
2022/04/13 06:18:17;;;;;;;4.13;3.72;;;11.90;66.60;;;;;;5086312;28;20414;-78
2022/04/13 06:20:43;;;;;;;5.28;3.90;;;11.90;66.40;;;;;;5087645;28;20028;-78
2022/04/13 06:23:09;;;;;;;5.30;4.10;;;11.80;66.10;;;;;;5086840;28;20387;-76
2022/04/13 06:25:34;;;;;;;7.95;3.95;;;11.80;66.20;;;;;;5086487;28;20039;-75
2022/04/13 06:28:00;;;;;;;6.45;3.80;;;11.80;66.20;;;;;;5087034;28;20498;-76
2022/04/13 06:30:26;;;;;;;6.88;4.40;;;11.80;66.10;;;;;;5086714;28;20024;-77
2022/04/13 06:32:52;;;;;;;5.03;3.67;;;11.80;66.10;;;;;;5087047;28;20036;-76
2022/04/13 06:35:18;;;;;;;5.78;4.18;;;11.70;66.20;;;;;;5086528;28;20553;-77
2022/04/13 06:37:46;;;;;;;6.20;4.00;;;11.70;66.20;;;;;;5086540;28;20432;-77
2022/04/13 06:40:14;;;;;;;6.45;4.50;;;11.60;66.20;;;;;;5086044;28;20082;-77
2022/04/13 06:42:40;;;;;;;6.95;4.60;;;11.60;66.20;;;;;;5086358;28;20481;-77
2022/04/13 06:45:10;;;;;;;6.38;4.43;;;11.60;66.20;;;;;;5086501;28;20028;-77
2022/04/13 06:47:37;;;;;;;5.70;4.25;;;11.60;66.10;;;;;;5086284;28;20038;-77
2022/04/13 06:50:03;;;;;;;6.78;4.70;;;11.60;66.10;;;;;;5051287;28;20502;-77
2022/04/13 06:52:33;;;;;;;8.63;4.57;;;11.60;66.00;;;;;;5086360;28;20119;-82
2022/04/13 06:55:00;;;;;;;27.67;5.90;;;11.50;66.10;;;;;;5063096;28;20534;-76
2022/04/13 06:57:26;;;;;;;9.75;4.20;;;11.50;66.80;;;;;;5085773;28;20054;-76
2022/04/13 06:59:51;;;;;;;6.85;3.75;;;11.60;68.30;;;;;;5068849;28;20036;-75
2022/04/13 07:02:17;;;;;;;7.88;4.18;;;11.70;67.90;;;;;;5067692;28;20040;-76
2022/04/13 07:04:43;;;;;;;6.20;4.07;;;11.90;67.20;;;;;;5085787;28;20032;-76
2022/04/13 07:07:09;;;;;;;6.03;3.97;;;11.90;66.50;;;;;;5050979;28;20127;-75
2022/04/13 07:09:36;;;;;;;6.18;3.95;;;12.00;66.00;;;;;;5085467;28;20548;-75
2022/04/13 07:12:02;;;;;;;7.22;3.92;;;12.10;65.60;;;;;;5086064;28;20032;-77
2022/04/13 07:14:28;;;;;;;5.47;3.97;;;12.10;65.30;;;;;;5085529;28;20032;-76
2022/04/13 07:16:54;;;;;;;7.80;4.20;;;12.10;65.10;;;;;;5085976;28;20059;-76
2022/04/13 07:19:20;;;;;;;5.65;4.07;;;12.20;65.10;;;;;;5085638;28;20032;-74
2022/04/13 07:21:46;;;;;;;7.00;4.05;;;12.20;64.90;;;;;;5067609;28;20043;-77
2022/04/13 07:24:12;;;;;;;5.78;4.40;;;12.20;64.90;;;;;;5085636;28;20032;-76
2022/04/13 07:26:39;;;;;;;6.03;3.85;;;12.20;64.70;;;;;;5068690;28;20374;-77
2022/04/13 07:29:05;;;;;;;4.78;3.70;;;12.20;64.60;;;;;;5085756;28;20028;-76
2022/04/13 07:31:31;;;;;;;6.80;4.38;;;12.30;64.50;;;;;;5085496;28;20058;-76
2022/04/13 07:33:57;;;;;;;5.40;4.03;;;12.30;64.30;;;;;;5085007;28;20557;-75
2022/04/13 07:36:23;;;;;;;5.57;4.55;;;12.30;64.30;;;;;;5085856;28;20054;-76
2022/04/13 07:38:52;;;;;;;5.45;4.20;;;12.30;64.20;;;;;;5068634;28;20081;-76
2022/04/13 07:41:18;;;;;;;5.28;4.03;;;12.30;64.10;;;;;;5085773;28;20032;-74
2022/04/13 07:43:44;;;;;;;7.45;4.57;;;12.30;64.10;;;;;;5067351;28;20028;-75
2022/04/13 07:46:11;;;;;;;7.32;4.55;;;12.30;64.10;;;;;;5085563;28;20030;-75
2022/04/13 07:48:37;;;;;;;7.20;4.57;;;12.30;64.00;;;;;;5085008;28;20032;-76
2022/04/13 07:51:03;;;;;;;5.32;4.53;;;12.40;64.00;;;;;;5085109;28;20035;-76
2022/04/13 07:53:28;;;;;;;6.68;4.53;;;12.40;64.00;;;;;;5086120;28;20047;-76
2022/04/13 07:55:54;;;;;;;4.93;3.92;;;12.40;63.90;;;;;;5068193;28;20090;-75
2022/04/13 07:58:21;;;;;;;5.32;4.38;;;12.40;63.90;;;;;;5067972;28;20032;-75
2022/04/13 08:00:46;;;;;;;5.85;4.50;;;12.50;63.90;;;;;;5068708;28;20028;-75
2022/04/13 08:03:12;;;;;;;7.15;4.82;;;12.40;63.70;;;;;;5067475;28;20068;-75
2022/04/13 08:05:40;;;;;;;7.18;4.45;;;12.50;63.80;;;;;;5082107;28;20470;-75
2022/04/13 08:08:06;;;;;;;7.18;4.43;;;12.50;63.70;;;;;;5083728;28;20051;-75
2022/04/13 08:10:32;;;;;;;5.05;3.97;;;12.50;63.70;;;;;;5082973;28;20139;-77
2022/04/13 08:12:58;;;;;;;4.65;3.75;;;12.50;63.70;;;;;;5064746;28;20131;-76
2022/04/13 08:15:24;;;;;;;6.13;4.32;;;12.50;63.60;;;;;;5085836;28;20062;-76
2022/04/13 08:17:50;;;;;;;5.95;4.28;;;12.60;63.60;;;;;;5087237;28;20499;-76
2022/04/13 08:20:17;;;;;;;6.50;4.70;;;12.50;63.50;;;;;;5085471;28;20041;-75
2022/04/13 08:22:44;;;;;;;6.60;4.53;;;12.60;63.50;;;;;;5086215;28;20452;-76
2022/04/13 08:25:10;;;;;;;6.70;4.82;;;12.60;63.50;;;;;;5067887;28;20117;-76
2022/04/13 08:27:37;;;;;;;6.18;3.85;;;12.60;63.50;;;;;;5051314;28;20036;-76
2022/04/13 08:30:04;;;;;;;6.43;4.72;;;12.60;63.50;;;;;;5086194;28;20038;-76
2022/04/13 08:32:30;;;;;;;5.93;4.57;;;12.70;63.50;;;;;;5085933;28;20032;-75
2022/04/13 08:34:56;;;;;;;5.90;4.50;;;12.70;63.50;;;;;;5085851;28;20036;-75
2022/04/13 08:37:25;;;;;;;6.43;4.45;;;12.70;63.50;;;;;;5086003;28;20406;-77
2022/04/13 08:39:51;;;;;;;5.45;4.20;;;12.70;63.40;;;;;;5085791;28;20567;-76
2022/04/13 08:42:33;;;;;;;6.55;4.78;;;12.70;63.40;;;;;;5084472;28;20565;-76
2022/04/13 08:45:22;;;;;;;9.07;5.07;;;12.70;63.40;;;;;;5085282;28;20804;-76
2022/04/13 08:47:50;;;;;;;8.50;4.68;;;12.70;63.40;;;;;;5072552;28;20169;-76
2022/04/13 08:50:17;;;;;;;7.63;4.95;;;12.70;63.40;;;;;;5065116;28;20611;-76
2022/04/13 08:52:49;;;;;;;6.47;4.93;;;12.80;63.50;;;;;;5085788;28;20081;-76
2022/04/13 08:55:18;;;;;;;6.95;5.13;;;12.80;63.50;;;;;;5084792;28;20474;-76
2022/04/13 08:57:50;;;;;;;8.65;5.82;;;12.70;63.50;;;;;;5085693;28;20442;-77
2022/04/13 09:00:20;;;;;;;8.30;5.60;;;12.80;63.50;;;;;;5084096;28;20475;-76
2022/04/13 09:03:01;;;;;;;10.98;7.00;;;12.80;63.50;;;;;;5084809;28;20085;-76
2022/04/13 09:05:33;;;;;;;13.60;7.22;;;12.80;63.50;;;;;;5065533;28;20040;-77
2022/04/13 09:08:15;;;;;;;9.80;6.72;;;12.80;63.60;;;;;;5066287;28;20233;-76
2022/04/13 09:10:42;;;;;;;10.55;6.72;;;12.80;63.60;;;;;;5084175;28;20445;-77
2022/04/13 09:13:11;;;;;;;11.80;6.40;;;12.80;63.60;;;;;;5085089;28;20060;-77
2022/04/13 09:15:41;;;;;;;10.25;6.55;;;12.90;63.60;;;;;;5087363;28;20075;-77
2022/04/13 09:18:08;;;;;;;11.23;6.70;;;12.90;63.60;;;;;;5088493;28;20147;-77
2022/04/13 09:20:35;;;;;;;9.25;6.32;;;12.90;63.50;;;;;;5053323;28;20052;-78
2022/04/13 09:23:04;;;;;;;9.07;6.53;;;12.90;63.50;;;;;;5088371;28;20036;-77
2022/04/13 09:25:34;;;;;;;10.57;5.97;;;12.80;63.50;;;;;;5087735;28;20105;-77
2022/04/13 09:28:02;;;;;;;10.02;6.38;;;12.90;63.60;;;;;;5088255;28;20585;-77
2022/04/13 09:30:30;;;;;;;11.95;6.50;;;12.90;63.60;;;;;;5087020;28;20028;-78
2022/04/13 09:32:58;;;;;;;8.75;5.80;;;12.90;63.50;;;;;;5088764;28;20023;-78
2022/04/13 09:35:24;;;;;;;9.93;6.05;;;12.90;63.50;;;;;;5087649;28;20029;-78
2022/04/13 09:37:51;;;;;;;9.23;5.93;;;12.90;63.40;;;;;;5088145;28;20038;-77
2022/04/13 09:40:40;;;;;;;9.10;6.07;;;12.90;63.50;;;;;;5087175;28;20510;-76
2022/04/13 09:43:15;;;;;;;9.40;5.93;;;12.90;63.50;;;;;;5087244;28;20036;-77
2022/04/13 09:45:44;;;;;;;10.82;6.47;;;12.90;63.60;;;;;;5070397;28;20032;-77
2022/04/13 09:48:16;;;;;;;9.52;6.15;;;12.90;63.60;;;;;;5088104;28;20028;-76
2022/04/13 09:50:44;;;;;;;9.38;6.53;;;12.90;63.60;;;;;;5070027;28;20032;-77
2022/04/13 09:53:12;;;;;;;10.57;6.05;;;12.90;63.50;;;;;;5088072;28;20028;-77
2022/04/13 09:55:43;;;;;;;10.18;6.72;;;12.80;63.50;;;;;;5087038;28;20051;-78
2022/04/13 09:58:14;;;;;;;11.40;6.55;;;12.90;63.50;;;;;;5087094;28;20595;-76
2022/04/13 10:00:43;;;;;;;10.95;6.05;;;12.90;63.50;;;;;;5087139;28;20028;-76
2022/04/13 10:03:12;;;;;;;9.80;5.53;;;12.90;63.50;;;;;;5069057;28;20027;-77
2022/04/13 10:05:59;;;;;;;10.32;6.38;;;12.80;63.50;;;;;;5087691;28;20062;-78
2022/04/13 10:08:27;;;;;;;11.15;6.28;;;12.80;63.50;;;;;;5087246;28;20039;-77
2022/04/13 10:10:56;;;;;;;11.80;6.47;;;12.80;63.50;;;;;;5102546;28;20043;-78
2022/04/13 10:13:41;;;;;;;9.25;5.93;;;12.80;63.50;;;;;;5086728;28;20032;-78
2022/04/13 10:16:09;;;;;;;7.97;5.70;;;12.80;63.60;;;;;;5086767;28;20036;-78
2022/04/13 10:18:54;;;;;;;10.18;6.43;;;12.80;63.60;;;;;;5052456;28;20040;-77
2022/04/13 10:21:43;;;;;;;9.15;6.30;;;12.80;63.70;;;;;;5086944;28;20556;-77
2022/04/13 10:24:24;;;;;;;10.75;5.90;;;12.80;63.70;;;;;;5087342;28;20036;-77
2022/04/13 10:27:07;;;;;;;11.00;6.30;;;12.80;63.70;;;;;;5086752;28;20537;-77
2022/04/13 10:29:38;;;;;;;11.82;6.57;;;12.80;63.70;;;;;;5064075;28;20511;-75
2022/04/13 10:32:17;;;;;;;9.95;6.50;;;12.70;63.70;;;;;;5067667;28;20451;-75
2022/04/13 10:34:45;;;;;;;10.82;6.88;;;12.80;63.80;;;;;;5085321;28;20458;-76
2022/04/13 10:37:14;;;;;;;10.25;6.18;;;12.70;63.70;;;;;;5085566;28;20036;-75
2022/04/13 10:39:41;;;;;;;8.75;5.80;;;12.70;63.70;;;;;;5067646;28;20387;-75
2022/04/13 10:42:12;;;;;;;9.90;6.13;;;12.70;63.70;;;;;;5085676;28;20122;-77
2022/04/13 10:45:02;;;;;;;10.18;6.25;;;12.70;63.70;;;;;;5067685;28;20054;-77
2022/04/13 10:47:36;;;;;;;11.13;6.93;;;12.70;63.70;;;;;;5077108;28;20506;-80
2022/04/13 10:50:04;;;;;;;14.60;8.05;;;12.70;63.90;;;;;;5067173;28;20068;-78
2022/04/13 10:52:52;;;;;;;15.52;9.23;;;12.80;64.80;;;;;;5068021;28;20502;-78
2022/04/13 10:55:20;;;;;;;15.23;9.43;;;12.80;65.40;;;;;;5085389;28;20040;-78
2022/04/13 10:58:02;;;;;;;17.45;9.85;;;12.80;66.00;;;;;;5051027;28;20037;-76
2022/04/13 11:00:31;;;;;;;13.82;8.18;;;12.90;66.30;;;;;;5064550;28;20032;-78
2022/04/13 11:03:06;;;;;;;10.35;7.68;;;12.90;65.60;;;;;;5053398;28;20119;-78
2022/04/13 11:05:33;;;;;;;13.57;7.63;;;12.90;65.20;;;;;;5080146;28;20032;-77
2022/04/13 11:08:14;;;;;;;12.30;6.72;;;12.90;64.80;;;;;;5083453;28;20036;-77
2022/04/13 11:10:47;;;;;;;10.15;6.72;;;12.90;64.50;;;;;;5080588;28;20043;-78
2022/04/13 11:13:15;;;;;;;11.48;6.93;;;12.90;64.30;;;;;;5083071;28;20044;-78
2022/04/13 11:15:48;;;;;;;9.90;6.80;;;12.80;64.10;;;;;;5081921;28;20077;-78
2022/04/13 11:18:18;;;;;;;10.55;7.30;;;12.90;64.10;;;;;;5061619;28;20056;-77
2022/04/13 11:21:07;;;;;;;10.10;6.53;;;12.80;64.00;;;;;;5045461;28;20028;-78
2022/04/13 11:23:51;;;;;;;13.10;6.78;;;12.80;63.90;;;;;;5062353;28;20029;-76
2022/04/13 11:26:34;;;;;;;11.48;6.18;;;12.80;63.90;;;;;;5064027;28;20042;-77
2022/04/13 11:29:17;;;;;;;11.95;7.05;;;12.80;63.80;;;;;;5063227;28;20040;-77
2022/04/13 11:32:02;;;;;;;10.57;6.20;;;12.80;63.90;;;;;;5062712;28;20043;-77
2022/04/13 11:34:31;;;;;;;11.15;6.03;;;12.80;63.80;;;;;;5072947;28;20565;-77
2022/04/13 11:36:59;;;;;;;10.63;6.95;;;12.90;63.90;;;;;;5062616;28;20048;-76
2022/04/13 11:40:02;;;;;;;11.27;6.15;;;12.80;63.70;;;;;;5063918;28;20067;-78
2022/04/13 11:42:28;;;;;;;11.13;6.63;;;12.80;63.60;;;;;;5056717;28;20028;-76
2022/04/13 11:45:10;;;;;;;10.27;6.25;;;12.90;63.60;;;;;;5063553;28;20041;-76
2022/04/13 11:47:51;;;;;;;8.57;5.95;;;12.80;63.50;;;;;;5076196;28;20048;-77
2022/04/13 11:50:17;;;;;;;10.13;6.43;;;12.90;63.60;;;;;;5062786;28;20043;-77
2022/04/13 11:53:02;;;;;;;9.68;6.70;;;12.80;63.50;;;;;;5064066;28;20040;-77
2022/04/13 11:55:35;;;;;;;10.55;6.28;;;12.90;63.60;;;;;;5029656;28;20125;-77
2022/04/13 11:58:21;;;;;;;10.30;6.75;;;12.90;63.50;;;;;;5064245;28;20036;-77
2022/04/13 12:00:52;;;;;;;;;;;12.90;63.50;;;;;;5064039;28;20056;-83
2022/04/13 12:03:40;;;;;;;8.43;6.10;;;12.90;63.50;;;;;;5062058;28;20018;-79
2022/04/13 12:06:21;;;;;;;10.82;6.38;;;12.90;63.40;;;;;;5029296;28;20037;-76
2022/04/13 12:08:55;;;;;;;11.02;6.40;;;12.90;63.40;;;;;;5063574;28;20041;-78
2022/04/13 12:11:46;;;;;;;10.48;6.15;;;12.90;63.50;;;;;;5031239;28;20030;-79
2022/04/13 12:14:27;;;;;;;9.25;6.70;;;12.90;63.40;;;;;;5063677;28;20036;-77
2022/04/13 12:16:57;;;;;;;10.05;6.15;;;12.90;63.40;;;;;;5064554;28;21297;-77
2022/04/13 12:19:23;;;;;;;9.73;6.18;;;12.80;63.40;;;;;;5045204;28;20032;-79
2022/04/13 12:21:49;;;;;;;9.10;6.22;;;12.90;63.40;;;;;;5063699;28;20499;-76
2022/04/13 12:24:15;;;;;;;10.90;6.47;;;12.90;63.40;;;;;;5063672;28;20060;-76
2022/04/13 12:26:44;;;;;;;8.30;6.10;;;12.80;63.30;;;;;;5051234;28;20113;-77
2022/04/13 12:29:24;;;;;;;8.35;6.00;;;12.80;63.30;;;;;;5063711;28;20127;-76
2022/04/13 12:31:55;;;;;;;9.15;5.78;;;12.80;63.30;;;;;;5059210;28;20537;-76
2022/04/13 12:34:22;;;;;;;9.00;5.57;;;12.80;63.30;;;;;;5064209;28;20033;-76
2022/04/13 12:36:56;;;;;;;8.10;4.90;;;12.80;63.20;;;;;;5063109;28;20060;-76
2022/04/13 12:39:26;;;;;;;8.95;4.70;;;12.80;63.20;;;;;;5063492;28;20414;-76
2022/04/13 12:41:52;;;;;;;6.30;4.53;;;12.80;63.20;;;;;;5058207;28;20040;-77
2022/04/13 12:44:19;;;;;;;6.93;3.90;;;12.80;63.20;;;;;;5064584;28;20064;-76
2022/04/13 12:46:45;;;;;;;8.50;3.55;;;12.80;63.20;;;;;;5064060;28;20136;-76
2022/04/13 12:49:19;;;;;;;5.72;3.88;;;12.80;63.10;;;;;;5066193;28;20116;-77
2022/04/13 12:51:45;;;;;;;5.65;4.10;;;12.80;63.20;;;;;;5067678;28;20037;-78
2022/04/13 12:54:11;;;;;;;7.93;3.95;;;12.70;63.10;;;;;;5050664;28;20115;-77